Time;durP1;ratioP1;P1;durP2;ratioP2;P2;SDS_P1;SDS_P2;PMS_P1;PMS_P2;Temp;Humidity;BMP_temperature;BMP_pressure;BME280_temperature;BME280_humidity;BME280_pressure;Samples;Min_cycle;Max_cycle;Signal;HPM_P1;HPM_P2
2023/01/05 00:01:46;;;;;;;41.27;8.73;;;10.90;99.90;;;;;;5013797;28;20571;-85
2023/01/05 00:04:14;;;;;;;42.87;9.13;;;10.90;99.90;;;;;;5013801;28;20234;-82
2023/01/05 00:06:42;;;;;;;37.33;8.40;;;10.90;99.90;;;;;;5014036;28;20195;-86
2023/01/05 00:09:11;;;;;;;41.87;8.77;;;10.90;99.90;;;;;;5014859;28;20215;-84
2023/01/05 00:22:45;;;;;;;42.73;8.97;;;10.80;99.90;;;;;;5013386;28;20727;-80
2023/01/05 00:25:14;;;;;;;43.60;8.57;;;10.80;99.90;;;;;;5013574;28;20565;-80
2023/01/05 00:27:43;;;;;;;37.50;9.47;;;10.80;99.90;;;;;;5012673;28;20472;-80
2023/01/05 00:30:12;;;;;;;37.17;7.57;;;10.80;99.90;;;;;;5013178;28;20289;-81
2023/01/05 00:32:40;;;;;;;28.73;7.40;;;10.80;99.90;;;;;;5012202;28;20238;-80
2023/01/05 00:35:10;;;;;;;36.93;7.73;;;10.80;99.90;;;;;;5012989;28;20249;-83
2023/01/05 00:37:37;;;;;;;36.07;7.57;;;10.70;99.90;;;;;;5012534;28;20223;-82
2023/01/05 00:40:06;;;;;;;38.57;8.37;;;10.70;99.90;;;;;;5013044;28;20206;-82
2023/01/05 00:42:32;;;;;;;29.17;7.27;;;10.70;99.90;;;;;;5012623;28;20314;-83
2023/01/05 00:44:59;;;;;;;38.03;8.57;;;10.70;99.90;;;;;;5012802;28;20287;-79
2023/01/05 00:47:26;;;;;;;37.70;7.97;;;10.70;99.90;;;;;;5016401;28;20230;-84
2023/01/05 00:49:53;;;;;;;29.03;6.23;;;10.70;99.90;;;;;;5031532;28;20219;-79
2023/01/05 00:52:21;;;;;;;38.30;7.40;;;10.70;99.90;;;;;;5022033;28;20568;-82
2023/01/05 00:54:48;;;;;;;37.53;8.73;;;10.70;99.90;;;;;;5011512;28;20227;-84
2023/01/05 00:57:15;;;;;;;36.97;7.43;;;10.70;99.90;;;;;;5012309;28;20207;-80
2023/01/05 00:59:42;;;;;;;38.73;7.77;;;10.70;99.90;;;;;;5011827;28;20360;-83
2023/01/05 01:02:10;;;;;;;34.67;7.17;;;10.70;99.90;;;;;;5011898;28;20770;-81
2023/01/05 01:04:37;;;;;;;33.10;7.33;;;10.70;99.90;;;;;;5012425;28;20207;-83
2023/01/05 01:07:05;;;;;;;40.30;8.27;;;10.70;99.90;;;;;;5011354;28;20199;-81
2023/01/05 01:09:34;;;;;;;40.57;7.97;;;10.70;99.90;;;;;;5011716;28;20277;-82
2023/01/05 01:12:02;;;;;;;39.30;8.03;;;10.70;99.90;;;;;;5012404;28;20222;-80
2023/01/05 01:14:29;;;;;;;35.20;7.57;;;10.70;99.90;;;;;;5012023;28;20570;-80
2023/01/05 01:16:56;;;;;;;37.47;8.40;;;10.70;99.90;;;;;;5012400;28;20231;-82
2023/01/05 01:19:25;;;;;;;35.37;8.13;;;10.80;99.90;;;;;;5011743;28;20286;-81
2023/01/05 01:21:52;;;;;;;33.37;7.27;;;10.80;99.90;;;;;;5011487;28;20509;-83
2023/01/05 01:24:21;;;;;;;39.23;8.13;;;10.80;99.90;;;;;;5011939;28;20211;-79
2023/01/05 01:26:50;;;;;;;39.60;9.63;;;10.90;99.90;;;;;;5011574;28;20631;-84
2023/01/05 01:29:18;;;;;;;41.43;9.73;;;10.90;99.90;;;;;;5012593;28;20613;-84
2023/01/05 01:31:45;;;;;;;42.60;8.10;;;10.90;99.90;;;;;;5013686;28;20231;-82
2023/01/05 01:34:12;;;;;;;34.47;7.97;;;10.90;99.90;;;;;;4994840;28;20214;-82
2023/01/05 01:36:39;;;;;;;32.97;7.83;;;10.90;99.90;;;;;;5012032;28;20199;-83
2023/01/05 01:39:06;;;;;;;45.10;9.30;;;10.90;99.90;;;;;;5023587;28;20286;-82
2023/01/05 01:41:33;;;;;;;42.30;8.33;;;10.90;99.90;;;;;;5031898;28;20280;-82
2023/01/05 01:44:01;;;;;;;41.70;8.23;;;10.90;99.90;;;;;;5020731;28;20234;-81
2023/01/05 01:46:29;;;;;;;38.43;8.07;;;10.90;99.90;;;;;;5015337;28;20592;-89
2023/01/05 01:49:00;;;;;;;37.40;8.37;;;11.00;99.90;;;;;;5014864;28;20210;-83
2023/01/05 01:51:31;;;;;;;34.80;7.80;;;11.00;99.90;;;;;;5015071;28;20301;-80
2023/01/05 01:54:00;;;;;;;51.10;10.17;;;11.00;99.90;;;;;;5015131;28;20204;-79
2023/01/05 01:56:33;;;;;;;38.40;7.70;;;10.90;99.90;;;;;;5015172;28;20217;-81
2023/01/05 01:59:02;;;;;;;33.80;8.80;;;10.90;99.90;;;;;;5014376;28;20286;-80
2023/01/05 02:01:29;;;;;;;43.27;8.90;;;10.90;99.90;;;;;;5014988;28;20203;-79
2023/01/05 02:03:56;;;;;;;34.57;8.10;;;10.90;99.90;;;;;;5014394;28;20248;-80
2023/01/05 02:06:23;;;;;;;33.37;6.83;;;10.90;99.90;;;;;;5015021;28;20207;-79
2023/01/05 02:08:50;;;;;;;35.87;9.13;;;10.90;99.90;;;;;;5014693;28;20274;-79
2023/01/05 02:11:28;;;;;;;44.80;9.83;;;10.90;99.90;;;;;;5027323;28;20305;-81
2023/01/05 02:14:09;;;;;;;47.77;8.20;;;10.90;99.90;;;;;;5027202;28;20599;-80
2023/01/05 02:16:45;;;;;;;38.97;7.43;;;10.90;99.90;;;;;;5015486;28;20195;-79
2023/01/05 02:19:55;;;;;;;37.00;7.10;;;10.90;99.90;;;;;;5014199;28;20231;-78
2023/01/05 02:22:59;;;;;;;40.00;7.43;;;11.00;99.90;;;;;;5015254;28;20284;-79
2023/01/05 02:25:54;;;;;;;37.50;7.10;;;10.90;99.90;;;;;;5014199;28;20205;-80
2023/01/05 02:28:35;;;;;;;41.80;8.43;;;10.90;99.90;;;;;;5014271;28;20187;-79
2023/01/05 02:31:13;;;;;;;36.30;7.73;;;10.90;99.90;;;;;;5014206;28;20203;-80
2023/01/05 02:34:06;;;;;;;42.67;8.37;;;10.90;99.90;;;;;;5013374;28;20274;-81
2023/01/05 02:36:42;;;;;;;38.43;7.93;;;10.90;99.90;;;;;;5014194;28;20199;-80
2023/01/05 02:39:15;;;;;;;36.80;7.77;;;10.90;99.90;;;;;;5013773;28;20282;-82
2023/01/05 02:41:47;;;;;;;36.47;8.53;;;10.90;99.90;;;;;;5013724;28;20588;-79
2023/01/05 02:44:17;;;;;;;29.23;6.93;;;10.80;99.90;;;;;;5014799;28;20318;-79
2023/01/05 02:46:45;;;;;;;42.67;8.43;;;10.90;99.90;;;;;;5013498;28;20211;-79
2023/01/05 02:49:13;;;;;;;37.77;7.97;;;10.90;99.90;;;;;;5013936;28;20210;-80
2023/01/05 02:51:45;;;;;;;45.63;8.63;;;10.90;99.90;;;;;;5013955;28;20230;-80
2023/01/05 02:54:18;;;;;;;43.27;8.67;;;10.90;99.90;;;;;;5012997;28;20223;-80
2023/01/05 02:56:50;;;;;;;44.87;8.93;;;10.90;99.90;;;;;;5014531;28;20594;-81
2023/01/05 02:59:24;;;;;;;32.10;7.63;;;10.80;99.90;;;;;;5026602;28;20191;-83
2023/01/05 03:01:56;;;;;;;36.77;8.10;;;10.80;99.90;;;;;;5031288;28;20192;-87
2023/01/05 03:04:30;;;;;;;37.87;7.47;;;10.80;99.90;;;;;;5015719;28;20286;-85
2023/01/05 03:06:59;;;;;;;39.97;7.87;;;10.80;99.90;;;;;;5015028;28;20190;-85
2023/01/05 03:09:29;;;;;;;38.50;7.33;;;10.90;99.90;;;;;;5026813;28;20202;-86
2023/01/05 03:14:50;;;;;;;37.10;8.30;;;10.90;99.90;;;;;;5035554;28;20198;-86
2023/01/05 03:17:25;;;;;;;35.10;6.80;;;10.90;99.90;;;;;;5036098;28;20278;-87
2023/01/05 03:19:52;;;;;;;36.97;6.70;;;10.80;99.90;;;;;;5016446;28;20491;-84
2023/01/05 03:36:33;;;;;;;40.27;8.33;;;10.90;99.90;;;;;;5031322;28;20277;-81
2023/01/05 03:39:02;;;;;;;44.03;7.90;;;10.90;99.90;;;;;;5033382;28;20606;-78
2023/01/05 03:41:29;;;;;;;36.40;7.73;;;10.90;99.90;;;;;;5033300;28;20202;-83
2023/01/05 03:43:57;;;;;;;31.37;7.10;;;10.90;99.90;;;;;;5031890;28;20218;-82
2023/01/05 03:46:24;;;;;;;38.03;7.80;;;10.90;99.90;;;;;;5013887;28;20204;-80
2023/01/05 03:48:52;;;;;;;34.30;6.97;;;10.90;99.90;;;;;;5013342;28;20230;-83
2023/01/05 03:51:19;;;;;;;36.00;7.10;;;10.90;99.90;;;;;;5013224;28;20631;-80
2023/01/05 03:53:46;;;;;;;36.70;7.50;;;10.90;99.90;;;;;;5013741;28;20187;-78
2023/01/05 03:56:13;;;;;;;47.13;8.07;;;10.90;99.90;;;;;;5012590;28;20247;-82
2023/01/05 03:58:40;;;;;;;33.37;8.10;;;11.00;99.90;;;;;;5027323;28;20276;-81
2023/01/05 04:01:07;;;;;;;32.03;6.70;;;11.00;99.90;;;;;;5033436;28;20285;-80
2023/01/05 04:03:34;;;;;;;30.30;6.83;;;10.90;99.90;;;;;;5012944;28;20207;-81
2023/01/05 04:06:03;;;;;;;37.77;7.63;;;10.90;99.90;;;;;;5011694;28;20213;-81
2023/01/05 04:08:30;;;;;;;31.77;6.70;;;10.90;99.90;;;;;;5012699;28;20290;-83
2023/01/05 04:10:57;;;;;;;32.50;7.73;;;10.80;99.90;;;;;;5012115;28;20637;-80
2023/01/05 04:13:24;;;;;;;44.13;8.33;;;10.80;99.90;;;;;;5013126;28;20707;-80
2023/01/05 04:15:51;;;;;;;35.90;7.67;;;10.80;99.90;;;;;;5013251;28;20199;-81
2023/01/05 04:18:18;;;;;;;35.40;7.47;;;10.90;99.90;;;;;;5012106;28;20203;-80
2023/01/05 04:20:45;;;;;;;36.90;6.70;;;10.90;99.90;;;;;;5012472;28;20286;-80
2023/01/05 04:23:13;;;;;;;34.77;7.40;;;10.90;99.90;;;;;;5013822;28;20191;-80
2023/01/05 04:25:40;;;;;;;42.50;7.57;;;11.00;99.90;;;;;;5031906;28;20290;-79
2023/01/05 04:28:07;;;;;;;31.47;8.00;;;11.00;99.90;;;;;;5032113;28;20764;-80
2023/01/05 04:30:34;;;;;;;35.50;8.30;;;11.00;99.90;;;;;;5017253;28;20227;-82
2023/01/05 04:33:01;;;;;;;39.27;7.63;;;11.00;99.90;;;;;;5013539;28;20195;-85
2023/01/05 04:35:28;;;;;;;33.63;7.30;;;11.00;99.90;;;;;;5013628;28;20750;-81
2023/01/05 04:37:54;;;;;;;37.27;6.87;;;11.00;99.90;;;;;;5012011;28;20279;-79
2023/01/05 04:40:23;;;;;;;42.77;8.00;;;11.00;99.90;;;;;;5011853;28;20270;-80
2023/01/05 04:42:50;;;;;;;33.10;6.80;;;11.00;99.90;;;;;;5024654;28;20226;-82
2023/01/05 04:45:17;;;;;;;39.43;7.73;;;11.00;99.90;;;;;;5031193;28;20199;-79
2023/01/05 04:47:43;;;;;;;31.67;7.93;;;11.00;99.90;;;;;;5032295;28;20701;-84
2023/01/05 04:50:11;;;;;;;31.73;7.20;;;11.00;99.90;;;;;;5017107;28;20566;-82
2023/01/05 04:52:38;;;;;;;44.20;8.23;;;11.00;99.90;;;;;;5012756;28;20234;-86
2023/01/05 04:55:06;;;;;;;38.67;7.37;;;11.00;99.90;;;;;;5012172;28;20242;-81
2023/01/05 04:57:34;;;;;;;38.27;7.43;;;11.00;99.90;;;;;;5018987;28;20277;-80
2023/01/05 05:00:01;;;;;;;37.27;7.97;;;11.00;99.90;;;;;;5031444;28;20197;-80
2023/01/05 05:02:28;;;;;;;40.97;9.87;;;11.00;99.90;;;;;;5030740;28;20250;-80
2023/01/05 05:04:55;;;;;;;36.93;8.97;;;11.00;99.90;;;;;;5031405;28;20217;-79
2023/01/05 05:07:22;;;;;;;39.77;8.97;;;10.90;99.90;;;;;;5031676;28;20205;-85
2023/01/05 05:09:49;;;;;;;34.53;6.93;;;11.00;99.90;;;;;;5023826;28;20203;-84
2023/01/05 05:12:19;;;;;;;41.43;8.77;;;11.00;99.90;;;;;;5011696;28;20657;-81
2023/01/05 05:14:47;;;;;;;36.20;6.87;;;11.00;99.90;;;;;;5011075;28;20215;-81
2023/01/05 05:17:15;;;;;;;38.57;9.03;;;11.00;99.90;;;;;;5011973;28;20295;-82
2023/01/05 05:19:42;;;;;;;32.83;8.63;;;11.00;99.90;;;;;;5011504;28;20242;-79
2023/01/05 05:22:10;;;;;;;48.70;10.87;;;11.00;99.90;;;;;;5011324;28;20615;-81
2023/01/05 05:24:37;;;;;;;46.23;8.30;;;11.00;99.90;;;;;;5012163;28;20694;-82
2023/01/05 05:27:04;;;;;;;37.17;8.43;;;11.00;99.90;;;;;;5011259;28;20769;-81
2023/01/05 05:29:31;;;;;;;33.80;8.07;;;11.00;99.90;;;;;;5011648;28;20290;-81
2023/01/05 05:31:59;;;;;;;34.53;6.63;;;11.00;99.90;;;;;;5011305;28;20214;-81
2023/01/05 05:34:26;;;;;;;34.07;7.90;;;10.90;99.90;;;;;;5022554;28;20217;-80
2023/01/05 05:36:53;;;;;;;45.90;10.03;;;10.90;99.90;;;;;;5031518;28;20206;-79
2023/01/05 05:39:20;;;;;;;35.33;7.60;;;10.90;99.90;;;;;;5021045;28;20297;-80
2023/01/05 05:41:47;;;;;;;33.17;7.63;;;10.90;99.90;;;;;;5011758;28;20199;-80
2023/01/05 05:44:14;;;;;;;37.63;8.70;;;10.90;99.90;;;;;;5011520;28;20522;-81
2023/01/05 05:46:41;;;;;;;44.20;9.20;;;10.90;99.90;;;;;;5011899;28;20233;-81
2023/01/05 05:49:09;;;;;;;35.60;7.67;;;11.00;99.90;;;;;;5025201;28;20257;-82
2023/01/05 05:51:36;;;;;;;41.07;7.57;;;11.00;99.90;;;;;;5030728;28;20678;-79
2023/01/05 05:54:03;;;;;;;40.13;8.50;;;11.00;99.90;;;;;;5031414;28;20202;-82
2023/01/05 05:56:30;;;;;;;41.90;8.07;;;10.90;99.90;;;;;;5031090;28;20194;-83
2023/01/05 05:58:57;;;;;;;31.20;6.53;;;11.00;99.90;;;;;;5030702;28;20610;-82
2023/01/05 06:01:24;;;;;;;34.70;7.77;;;10.90;99.90;;;;;;5014688;28;20207;-81
2023/01/05 06:03:51;;;;;;;47.90;8.40;;;10.90;99.90;;;;;;5010835;28;20195;-81
2023/01/05 06:06:19;;;;;;;43.40;8.43;;;10.90;99.90;;;;;;5011173;28;20290;-82
2023/01/05 06:08:46;;;;;;;31.03;7.70;;;10.90;99.90;;;;;;5012117;28;20595;-83
2023/01/05 06:11:13;;;;;;;37.37;6.93;;;10.90;99.90;;;;;;5010566;28;20215;-83
2023/01/05 06:13:41;;;;;;;41.53;8.20;;;10.90;99.90;;;;;;5010924;28;20203;-84
2023/01/05 06:16:08;;;;;;;37.57;7.17;;;10.90;99.90;;;;;;5010321;28;20297;-86
2023/01/05 06:18:35;;;;;;;36.87;7.63;;;10.90;99.90;;;;;;5011071;28;20195;-85
2023/01/05 06:21:02;;;;;;;39.57;8.07;;;10.90;99.90;;;;;;5012862;28;20203;-90
2023/01/05 06:23:30;;;;;;;36.50;6.07;;;10.90;99.90;;;;;;5013834;28;20207;-87
2023/01/05 06:25:57;;;;;;;35.37;7.87;;;10.90;99.90;;;;;;5022146;28;20234;-85
2023/01/05 06:28:24;;;;;;;37.50;7.40;;;10.90;99.90;;;;;;5033513;28;20195;-88
2023/01/05 06:30:51;;;;;;;28.80;7.83;;;10.90;99.90;;;;;;5036419;28;20199;-88
2023/01/05 06:33:18;;;;;;;33.50;6.57;;;10.80;99.90;;;;;;5037206;28;20281;-88
2023/01/05 06:35:45;;;;;;;36.67;7.20;;;10.80;99.90;;;;;;5036986;28;20297;-89
2023/01/05 06:38:12;;;;;;;38.87;6.70;;;10.80;99.90;;;;;;5026152;28;20290;-86
2023/01/05 06:40:43;;;;;;;35.23;6.90;;;10.80;99.90;;;;;;5017225;28;20203;-87
2023/01/05 06:43:10;;;;;;;24.50;5.53;;;10.80;99.90;;;;;;5017677;28;20254;-88
2023/01/05 06:45:37;;;;;;;35.87;7.80;;;10.80;99.90;;;;;;5017015;28;20209;-87
2023/01/05 06:48:04;;;;;;;29.43;6.77;;;10.80;99.90;;;;;;5017201;28;20295;-86
2023/01/05 06:50:32;;;;;;;45.33;8.27;;;10.80;99.90;;;;;;5017086;28;20551;-83
2023/01/05 06:52:59;;;;;;;30.67;6.40;;;10.80;99.90;;;;;;5028493;28;20226;-88
2023/01/05 06:55:25;;;;;;;36.07;7.57;;;10.80;99.90;;;;;;5036501;28;20244;-89
2023/01/05 06:57:54;;;;;;;36.50;8.10;;;10.80;99.90;;;;;;5037041;28;20230;-88
2023/01/05 07:00:22;;;;;;;34.00;7.63;;;10.80;99.90;;;;;;5027930;28;20294;-84
2023/01/05 07:02:49;;;;;;;28.63;6.63;;;10.80;99.90;;;;;;5016870;28;20198;-88
2023/01/05 07:05:16;;;;;;;33.07;7.07;;;10.80;99.90;;;;;;5016678;28;20290;-87
2023/01/05 07:07:43;;;;;;;29.47;7.10;;;10.80;99.90;;;;;;5036413;28;20198;-86
2023/01/05 07:10:10;;;;;;;36.00;6.80;;;10.80;99.90;;;;;;5025842;28;20230;-86
2023/01/05 07:12:37;;;;;;;29.90;6.57;;;10.80;99.90;;;;;;5016247;28;20227;-86
2023/01/05 07:15:07;;;;;;;29.57;6.93;;;10.80;99.90;;;;;;5016666;28;20207;-86
2023/01/05 07:17:35;;;;;;;32.80;7.07;;;10.90;99.90;;;;;;5016818;28;20195;-87
2023/01/05 07:20:02;;;;;;;32.60;7.20;;;10.80;99.90;;;;;;5017225;28;20577;-82
2023/01/05 07:22:30;;;;;;;35.10;6.80;;;10.80;99.90;;;;;;5018622;28;20206;-82
2023/01/05 07:24:57;;;;;;;31.33;6.40;;;10.80;99.90;;;;;;5015191;28;20207;-86
2023/01/05 07:27:24;;;;;;;28.97;7.37;;;10.80;99.90;;;;;;5014492;28;20192;-83
2023/01/05 07:29:51;;;;;;;35.17;6.27;;;10.80;99.90;;;;;;5015726;28;20291;-83
2023/01/05 07:32:19;;;;;;;36.57;7.03;;;10.80;99.90;;;;;;5014553;28;20223;-83
2023/01/05 07:34:46;;;;;;;35.17;6.00;;;10.80;99.90;;;;;;5012981;28;20607;-82
2023/01/05 07:37:13;;;;;;;37.13;7.23;;;10.80;99.90;;;;;;5015032;28;20265;-79
2023/01/05 07:39:40;;;;;;;27.70;5.60;;;10.80;99.90;;;;;;5014232;28;20279;-82
2023/01/05 07:42:07;;;;;;;36.10;7.17;;;10.80;99.90;;;;;;5012170;28;20257;-82
2023/01/05 07:44:34;;;;;;;32.10;6.03;;;10.80;99.90;;;;;;5013721;28;20286;-80
2023/01/05 07:47:01;;;;;;;29.77;5.33;;;10.80;99.90;;;;;;5014278;28;20286;-84
2023/01/05 07:49:29;;;;;;;34.83;7.63;;;10.80;99.90;;;;;;5012963;28;20658;-84
2023/01/05 07:51:56;;;;;;;23.80;5.60;;;10.80;99.90;;;;;;5013787;28;20250;-82
2023/01/05 07:54:23;;;;;;;29.77;6.40;;;10.80;99.90;;;;;;5017700;28;20532;-87
2023/01/05 07:56:50;;;;;;;30.57;5.93;;;10.70;99.90;;;;;;5034977;28;20195;-87
2023/01/05 07:59:17;;;;;;;29.53;6.83;;;10.80;99.90;;;;;;5035055;28;20195;-88
2023/01/05 08:01:44;;;;;;;33.67;7.43;;;10.80;99.90;;;;;;5034854;28;20231;-80
2023/01/05 08:04:12;;;;;;;29.50;6.33;;;10.80;99.90;;;;;;5014663;28;20305;-81
2023/01/05 08:06:40;;;;;;;36.03;6.87;;;10.80;99.90;;;;;;5013320;28;20209;-81
2023/01/05 08:11:48;;;;;;;32.17;6.77;;;10.80;99.90;;;;;;5014476;28;20218;-86
2023/01/05 08:14:15;;;;;;;38.20;6.17;;;10.80;99.90;;;;;;5015352;28;20554;-86
2023/01/05 08:16:44;;;;;;;36.00;6.70;;;10.80;99.90;;;;;;5016585;28;20669;-87
2023/01/05 08:19:11;;;;;;;28.67;6.33;;;10.80;99.90;;;;;;5033325;28;20209;-86
2023/01/05 08:21:37;;;;;;;26.53;6.63;;;10.90;99.90;;;;;;5032379;28;20209;-85
2023/01/05 08:24:07;;;;;;;32.03;6.60;;;10.90;99.90;;;;;;5027043;28;20737;-79
2023/01/05 08:26:34;;;;;;;26.77;6.23;;;10.90;99.90;;;;;;5012592;28;20199;-80
2023/01/05 08:29:01;;;;;;;33.60;6.87;;;10.80;99.90;;;;;;5012039;28;20473;-79
2023/01/05 08:31:30;;;;;;;23.13;5.67;;;10.80;99.90;;;;;;5020638;28;20222;-80
2023/01/05 08:33:58;;;;;;;36.90;7.97;;;10.70;99.90;;;;;;5031814;28;20226;-81
2023/01/05 08:36:26;;;;;;;31.80;6.80;;;10.80;99.90;;;;;;5031592;28;20223;-80
2023/01/05 08:38:54;;;;;;;42.43;7.40;;;10.80;99.90;;;;;;5030246;28;20213;-80
2023/01/05 08:41:24;;;;;;;25.87;6.43;;;10.80;99.90;;;;;;5031496;28;20606;-80
2023/01/05 08:43:52;;;;;;;31.03;7.73;;;10.80;99.90;;;;;;5027192;28;20316;-80
2023/01/05 08:46:19;;;;;;;30.70;6.63;;;10.80;99.90;;;;;;5028079;28;20510;-82
2023/01/05 08:48:49;;;;;;;29.47;6.53;;;10.90;99.90;;;;;;5027854;28;20644;-80
2023/01/05 08:51:16;;;;;;;39.47;6.67;;;10.90;99.90;;;;;;5030615;28;20294;-86
2023/01/05 08:53:43;;;;;;;30.33;6.20;;;10.90;99.90;;;;;;5030115;28;20219;-80
2023/01/05 08:56:10;;;;;;;41.50;7.37;;;10.90;99.90;;;;;;5030917;28;20349;-82
2023/01/05 08:58:39;;;;;;;31.10;6.37;;;10.90;99.90;;;;;;5030499;28;20206;-80
2023/01/05 09:01:09;;;;;;;28.30;6.27;;;10.90;99.90;;;;;;5023497;28;20238;-78
2023/01/05 09:03:37;;;;;;;28.33;6.63;;;10.90;99.90;;;;;;5010880;28;20282;-79
2023/01/05 09:06:04;;;;;;;29.00;7.60;;;10.90;99.90;;;;;;5010139;28;20576;-80
2023/01/05 09:08:33;;;;;;;33.50;6.77;;;10.90;99.90;;;;;;5011690;28;20265;-80
2023/01/05 09:11:06;;;;;;;32.43;6.83;;;11.00;99.90;;;;;;5011733;28;20532;-79
2023/01/05 09:13:33;;;;;;;24.10;6.33;;;10.90;99.90;;;;;;5015543;28;20214;-80
2023/01/05 09:16:06;;;;;;;27.90;6.50;;;11.00;99.90;;;;;;5031073;28;20286;-78
2023/01/05 09:18:33;;;;;;;34.77;8.53;;;11.00;99.90;;;;;;5017130;28;20195;-79
2023/01/05 09:21:00;;;;;;;31.33;6.73;;;11.00;99.90;;;;;;5011125;28;20261;-79
2023/01/05 09:23:27;;;;;;;23.17;5.73;;;11.00;99.90;;;;;;5012056;28;20282;-80
2023/01/05 09:25:54;;;;;;;27.43;6.10;;;11.10;99.90;;;;;;5011290;28;20290;-80
2023/01/05 09:28:21;;;;;;;29.47;8.30;;;11.10;99.90;;;;;;5011794;28;20234;-79
2023/01/05 09:30:48;;;;;;;36.50;6.30;;;11.10;99.90;;;;;;5011701;28;20295;-80
2023/01/05 09:33:16;;;;;;;37.17;7.53;;;11.10;99.90;;;;;;5011329;28;20595;-80
2023/01/05 09:35:43;;;;;;;34.07;6.63;;;11.10;99.90;;;;;;5022843;28;20256;-81
2023/01/05 09:38:10;;;;;;;36.47;6.77;;;11.10;99.90;;;;;;5028345;28;20210;-80
2023/01/05 09:40:42;;;;;;;26.13;6.03;;;11.10;99.90;;;;;;5031816;28;20207;-85
2023/01/05 09:43:16;;;;;;;27.00;6.67;;;11.10;99.90;;;;;;5029486;28;20302;-87
2023/01/05 09:45:44;;;;;;;26.77;6.00;;;11.10;99.90;;;;;;5026346;28;20603;-85
2023/01/05 09:48:14;;;;;;;37.67;7.53;;;11.20;99.90;;;;;;5032620;28;20323;-79
2023/01/05 09:50:44;;;;;;;27.07;6.70;;;11.20;99.90;;;;;;5021729;28;20206;-79
2023/01/05 09:53:13;;;;;;;28.20;6.30;;;11.20;99.90;;;;;;5019257;28;20211;-79
2023/01/05 09:55:41;;;;;;;28.77;6.73;;;11.30;99.90;;;;;;5027838;28;20324;-79
2023/01/05 09:58:16;;;;;;;37.20;7.70;;;11.30;99.90;;;;;;5019549;28;20217;-80
2023/01/05 10:00:50;;;;;;;28.67;6.43;;;11.30;99.90;;;;;;5009422;28;20598;-78
2023/01/05 10:03:21;;;;;;;25.73;5.90;;;11.30;99.90;;;;;;5010177;28;20195;-79
2023/01/05 10:05:50;;;;;;;25.13;6.50;;;11.30;99.90;;;;;;5014800;28;20200;-80
2023/01/05 10:08:24;;;;;;;29.87;6.03;;;11.30;99.90;;;;;;5014630;28;20203;-79
2023/01/05 10:13:40;;;;;;;32.77;6.47;;;11.30;99.90;;;;;;5014130;28;20223;-79
2023/01/05 10:16:10;;;;;;;36.80;7.93;;;11.30;99.90;;;;;;5013994;28;20187;-79
2023/01/05 10:18:37;;;;;;;27.20;5.57;;;11.30;99.90;;;;;;5014514;28;20234;-79
2023/01/05 10:21:14;;;;;;;29.47;6.83;;;11.30;99.90;;;;;;5014784;28;20497;-83
2023/01/05 10:23:55;;;;;;;30.90;6.33;;;11.30;99.90;;;;;;5014284;28;20191;-79
2023/01/05 10:26:28;;;;;;;25.57;5.33;;;11.30;99.90;;;;;;5025625;28;20202;-80
2023/01/05 10:29:00;;;;;;;28.40;6.37;;;11.30;99.90;;;;;;5035891;28;20193;-79
2023/01/05 10:31:40;;;;;;;24.50;5.47;;;11.30;99.90;;;;;;5034272;28;20297;-82
2023/01/05 10:34:15;;;;;;;31.73;6.30;;;11.30;99.90;;;;;;5015580;28;20223;-79
2023/01/05 10:37:03;;;;;;;33.73;6.63;;;11.30;99.90;;;;;;5013662;28;20280;-79
2023/01/05 10:39:44;;;;;;;35.20;6.60;;;11.30;99.90;;;;;;5013994;28;20783;-77
2023/01/05 10:42:22;;;;;;;35.03;6.17;;;11.30;99.90;;;;;;5013788;28;20314;-78
2023/01/05 10:44:56;;;;;;;28.57;5.77;;;11.40;99.90;;;;;;5017740;28;20294;-77
2023/01/05 10:47:25;;;;;;;32.00;6.43;;;11.40;99.90;;;;;;5034338;28;20206;-79
2023/01/05 10:49:52;;;;;;;26.60;6.13;;;11.40;99.90;;;;;;5033647;28;20202;-80
2023/01/05 10:52:22;;;;;;;30.23;6.60;;;11.40;99.90;;;;;;5033745;28;20191;-77
2023/01/05 10:54:52;;;;;;;24.30;6.07;;;11.40;99.90;;;;;;5015174;28;20322;-78
2023/01/05 10:57:38;;;;;;;27.53;6.60;;;11.50;99.90;;;;;;5013654;28;20295;-77
2023/01/05 11:00:14;;;;;;;26.10;5.97;;;11.50;99.90;;;;;;5014156;28;20215;-78
2023/01/05 11:02:46;;;;;;;26.23;5.43;;;11.50;99.90;;;;;;5013637;28;20222;-78
2023/01/05 11:05:32;;;;;;;30.47;5.80;;;11.60;99.90;;;;;;5013506;28;20207;-80
2023/01/05 11:08:03;;;;;;;32.60;6.53;;;11.50;99.90;;;;;;5013878;28;20286;-78
2023/01/05 11:10:35;;;;;;;30.80;6.67;;;11.60;99.90;;;;;;5012388;28;20216;-78
2023/01/05 11:13:05;;;;;;;30.37;6.63;;;11.60;99.90;;;;;;5012452;28;20251;-78
2023/01/05 11:15:40;;;;;;;25.90;6.47;;;11.70;99.90;;;;;;5012869;28;20234;-79
2023/01/05 11:18:18;;;;;;;28.70;5.87;;;11.70;99.90;;;;;;5013013;28;20207;-82
2023/01/05 11:21:05;;;;;;;28.07;6.30;;;11.70;99.90;;;;;;5012923;28;20197;-80
2023/01/05 11:23:36;;;;;;;29.47;7.00;;;11.70;99.90;;;;;;5012654;28;20214;-81
2023/01/05 11:26:19;;;;;;;33.90;7.23;;;11.80;99.90;;;;;;5012295;28;20624;-80
2023/01/05 11:28:58;;;;;;;36.30;7.53;;;11.80;99.90;;;;;;5012479;28;20191;-81
2023/01/05 11:31:27;;;;;;;28.13;6.33;;;11.80;99.90;;;;;;5012878;28;20783;-81
2023/01/05 11:33:57;;;;;;;28.67;6.60;;;11.80;99.90;;;;;;5012490;28;20238;-80
2023/01/05 11:36:24;;;;;;;38.50;7.40;;;11.80;99.90;;;;;;5013058;28;20207;-80
2023/01/05 11:38:55;;;;;;;31.80;7.73;;;11.80;99.90;;;;;;5013608;28;20227;-80
2023/01/05 11:41:23;;;;;;;35.47;7.40;;;11.80;99.90;;;;;;5011974;28;20213;-82
2023/01/05 11:43:53;;;;;;;38.00;8.37;;;11.90;99.90;;;;;;5012141;28;20225;-81
2023/01/05 11:46:22;;;;;;;32.33;6.83;;;11.90;99.90;;;;;;5019685;28;20204;-80
2023/01/05 11:48:53;;;;;;;33.37;8.00;;;11.90;99.90;;;;;;5012937;28;20206;-80
2023/01/05 11:51:37;;;;;;;42.60;7.27;;;11.90;99.90;;;;;;5013183;28;20690;-82
2023/01/05 11:54:06;;;;;;;36.73;7.70;;;12.00;99.90;;;;;;5012408;28;20258;-80
2023/01/05 11:56:33;;;;;;;29.67;7.13;;;12.00;99.90;;;;;;5012088;28;20183;-80
2023/01/05 11:59:00;;;;;;;34.60;7.50;;;12.10;99.90;;;;;;5013483;28;20291;-82
2023/01/05 12:01:58;;;;;;;37.10;8.40;;;12.20;99.90;;;;;;5012309;28;20231;-83
2023/01/05 12:04:45;;;;;;;37.23;7.57;;;12.20;99.90;;;;;;5023285;28;20277;-82
2023/01/05 12:07:25;;;;;;;37.57;8.57;;;12.20;99.90;;;;;;5031597;28;20505;-82
2023/01/05 12:10:00;;;;;;;37.00;8.07;;;12.20;99.90;;;;;;5029806;28;20459;-82
2023/01/05 12:12:52;;;;;;;36.33;8.83;;;12.20;99.90;;;;;;5013358;28;20222;-82
2023/01/05 12:15:48;;;;;;;37.90;8.27;;;12.20;99.90;;;;;;5012592;28;20241;-81
2023/01/05 12:18:39;;;;;;;31.67;8.27;;;12.20;99.90;;;;;;5023096;28;20787;-82
2023/01/05 12:21:12;;;;;;;33.77;7.10;;;12.20;99.90;;;;;;5032596;28;20278;-81
2023/01/05 12:24:09;;;;;;;37.13;7.33;;;12.20;99.90;;;;;;5013416;28;20275;-81
2023/01/05 12:26:44;;;;;;;33.23;7.87;;;12.10;99.90;;;;;;5021278;28;20286;-81
2023/01/05 12:29:32;;;;;;;34.17;7.50;;;12.10;99.90;;;;;;5031544;28;20735;-82
2023/01/05 12:32:15;;;;;;;33.13;7.80;;;12.10;99.90;;;;;;5032072;28;20215;-81
2023/01/05 12:35:09;;;;;;;28.73;6.60;;;12.10;99.90;;;;;;5013577;28;20524;-81
2023/01/05 12:37:48;;;;;;;34.67;8.70;;;12.10;99.90;;;;;;5013038;28;20230;-80
2023/01/05 12:40:32;;;;;;;34.40;8.13;;;12.10;99.90;;;;;;5026455;28;20201;-80
2023/01/05 12:43:04;;;;;;;33.57;6.53;;;12.10;99.90;;;;;;5025976;28;20256;-82
2023/01/05 12:45:54;;;;;;;32.13;8.23;;;12.10;99.90;;;;;;5032678;28;20282;-82
2023/01/05 12:48:28;;;;;;;31.53;8.37;;;12.10;99.90;;;;;;5030045;28;20507;-82
2023/01/05 12:51:02;;;;;;;36.23;8.30;;;12.00;99.90;;;;;;5013991;28;20498;-82
2023/01/05 12:53:40;;;;;;;32.93;8.20;;;12.00;99.90;;;;;;5013692;28;20211;-82
2023/01/05 12:56:17;;;;;;;36.23;8.27;;;11.90;99.90;;;;;;5013599;28;20568;-83
2023/01/05 12:58:51;;;;;;;29.73;8.63;;;11.90;99.90;;;;;;5013066;28;20206;-82
2023/01/05 13:01:27;;;;;;;36.37;9.87;;;11.80;99.90;;;;;;5013467;28;20208;-82
2023/01/05 13:04:00;;;;;;;37.93;8.70;;;11.80;99.90;;;;;;5013492;28;20203;-81
2023/01/05 13:06:32;;;;;;;43.07;9.53;;;11.80;99.90;;;;;;5013862;28;20269;-82
2023/01/05 13:09:04;;;;;;;36.67;8.33;;;11.80;99.90;;;;;;5025202;28;20571;-82
2023/01/05 13:11:35;;;;;;;39.47;8.47;;;11.80;99.90;;;;;;5030405;28;20237;-81
2023/01/05 13:14:07;;;;;;;41.47;8.80;;;11.70;99.90;;;;;;5032127;28;20215;-82
2023/01/05 13:16:39;;;;;;;37.97;9.97;;;11.70;99.90;;;;;;5033171;28;20186;-82
2023/01/05 13:19:13;;;;;;;40.73;10.17;;;11.80;99.90;;;;;;5026057;28;20209;-82
2023/01/05 13:21:44;;;;;;;35.77;9.43;;;11.80;99.90;;;;;;5012872;28;20282;-83
2023/01/05 13:24:19;;;;;;;43.17;9.33;;;11.80;99.90;;;;;;5013013;28;20569;-83
2023/01/05 13:26:47;;;;;;;39.73;8.93;;;11.80;99.90;;;;;;5013395;28;20658;-83